createdAt,value
2018-11-26T00:00:41.395Z,67.50
2018-11-26T00:03:11.048Z,67.50
2018-11-26T00:05:40.292Z,67.60
2018-11-26T00:08:09.924Z,67.60
2018-11-26T00:10:49.701Z,67.50
2018-11-26T00:13:18.110Z,67.60
2018-11-26T00:15:46.561Z,67.60
2018-11-26T00:18:15.064Z,67.90
2018-11-26T00:20:43.478Z,67.90
2018-11-26T00:23:11.797Z,68.00
2018-11-26T00:25:40.173Z,68.00
2018-11-26T00:28:08.617Z,68.30
2018-11-26T00:30:36.985Z,67.90
2018-11-26T00:33:05.580Z,68.00
2018-11-26T00:35:33.929Z,68.10
2018-11-26T00:38:02.427Z,67.90
2018-11-26T00:40:30.743Z,68.30
2018-11-26T00:42:59.044Z,68.20
2018-11-26T00:45:27.447Z,68.20
2018-11-26T00:47:55.865Z,68.20
2018-11-26T00:50:24.201Z,68.00
2018-11-26T00:52:52.585Z,67.90
2018-11-26T00:55:20.951Z,68.00
2018-11-26T00:57:49.331Z,68.00
2018-11-26T01:00:18.801Z,68.10
2018-11-26T01:02:47.226Z,67.90
2018-11-26T01:05:34.343Z,68.00
2018-11-26T01:08:02.787Z,67.70
2018-11-26T01:10:31.180Z,67.90
2018-11-26T01:12:59.569Z,67.70
2018-11-26T01:15:28.018Z,67.60
2018-11-26T01:17:56.489Z,67.70
2018-11-26T01:20:24.817Z,67.70
2018-11-26T01:22:53.207Z,67.70
2018-11-26T01:25:21.531Z,67.70
2018-11-26T01:27:49.876Z,67.70
2018-11-26T01:30:18.207Z,67.50
2018-11-26T01:32:46.585Z,67.40
2018-11-26T01:35:14.995Z,67.50
2018-11-26T01:37:43.344Z,67.60
2018-11-26T01:40:20.077Z,67.30
2018-11-26T01:42:48.643Z,67.30
2018-11-26T01:45:16.980Z,67.20
2018-11-26T01:47:45.379Z,67.10
2018-11-26T01:50:13.763Z,67.60
2018-11-26T01:52:42.145Z,67.00
2018-11-26T01:55:10.994Z,67.00
2018-11-26T01:57:39.486Z,67.10
2018-11-26T02:00:15.139Z,67.10
2018-11-26T02:02:43.567Z,67.10
2018-11-26T02:05:12.043Z,66.90
2018-11-26T02:07:40.458Z,67.20
2018-11-26T02:10:12.748Z,67.20
2018-11-26T02:12:41.224Z,67.10
2018-11-26T02:15:12.717Z,67.00
2018-11-26T02:17:41.117Z,66.60
2018-11-26T02:20:10.415Z,66.90
2018-11-26T02:22:38.881Z,66.80
2018-11-26T02:25:08.301Z,67.00
2018-11-26T02:27:36.775Z,67.10
2018-11-26T02:30:05.903Z,67.00
2018-11-26T02:32:34.187Z,67.00
2018-11-26T02:35:02.576Z,66.90
2018-11-26T02:37:32.105Z,66.90
2018-11-26T02:40:00.464Z,67.00
2018-11-26T02:42:29.271Z,66.90
2018-11-26T02:44:59.095Z,67.00
2018-11-26T02:47:27.592Z,66.80
2018-11-26T02:49:55.992Z,66.90
2018-11-26T02:52:24.295Z,66.70
2018-11-26T02:54:52.667Z,66.90
2018-11-26T02:57:21.159Z,66.90
2018-11-26T02:59:49.527Z,66.90
2018-11-26T03:02:17.920Z,67.10
2018-11-26T03:04:46.301Z,66.60
2018-11-26T03:07:14.698Z,66.90
2018-11-26T03:09:43.181Z,66.70
2018-11-26T03:12:11.559Z,66.90
2018-11-26T03:14:39.924Z,66.70
2018-11-26T03:17:08.315Z,66.70
2018-11-26T03:19:38.652Z,66.60
2018-11-26T03:22:06.993Z,67.40
2018-11-26T03:24:35.435Z,66.60
2018-11-26T03:27:04.942Z,66.80
2018-11-26T03:29:33.250Z,67.40
2018-11-26T03:32:01.608Z,66.60
2018-11-26T03:34:30.429Z,66.60
2018-11-26T03:36:58.895Z,66.70
2018-11-26T03:39:27.305Z,66.80
2018-11-26T03:41:56.662Z,66.60
2018-11-26T03:44:26.446Z,66.70
2018-11-26T03:46:54.793Z,66.80
2018-11-26T03:49:24.549Z,66.60
2018-11-26T03:51:52.879Z,66.20
2018-11-26T03:54:21.282Z,66.40
2018-11-26T03:56:49.628Z,66.50
2018-11-26T03:59:18.053Z,66.40
2018-11-26T04:01:46.397Z,66.40
2018-11-26T04:04:14.749Z,66.40
2018-11-26T04:06:43.098Z,66.40
2018-11-26T04:09:11.454Z,66.60
2018-11-26T04:11:39.841Z,66.40
2018-11-26T04:17:14.424Z,66.30
2018-11-26T04:19:42.716Z,66.60
2018-11-26T04:22:12.016Z,66.40
2018-11-26T04:24:44.310Z,66.60
2018-11-26T04:27:12.737Z,66.60
2018-11-26T04:29:41.084Z,66.40
2018-11-26T04:32:09.433Z,66.40
2018-11-26T04:34:38.439Z,66.60
2018-11-26T04:37:08.832Z,66.50
2018-11-26T04:39:38.152Z,66.40
2018-11-26T04:42:07.487Z,66.20
2018-11-26T04:44:37.152Z,66.40
2018-11-26T04:47:05.568Z,66.20
2018-11-26T04:49:34.948Z,66.20
2018-11-26T04:52:04.302Z,66.40
2018-11-26T04:54:32.616Z,66.20
2018-11-26T04:57:03.344Z,66.30
2018-11-26T04:59:31.651Z,66.30
2018-11-26T05:02:01.122Z,67.20
2018-11-26T05:04:29.416Z,66.30
2018-11-26T05:06:57.789Z,66.70
2018-11-26T05:09:26.206Z,66.30
2018-11-26T05:11:54.716Z,66.30
2018-11-26T05:14:23.120Z,66.20
2018-11-26T05:16:51.547Z,66.30
2018-11-26T05:19:19.880Z,66.30
2018-11-26T05:21:48.157Z,66.30
2018-11-26T05:24:16.409Z,66.40
2018-11-26T05:26:46.167Z,66.30
2018-11-26T05:29:16.042Z,66.40
2018-11-26T05:31:44.407Z,66.30
2018-11-26T05:34:14.240Z,66.80
2018-11-26T05:36:42.568Z,66.70
2018-11-26T05:39:10.947Z,66.10
2018-11-26T05:41:39.431Z,66.00
2018-11-26T05:44:07.764Z,66.00
2018-11-26T05:46:37.964Z,66.20
2018-11-26T05:49:06.778Z,66.20
2018-11-26T05:51:35.064Z,66.30
2018-11-26T05:54:03.493Z,66.50
2018-11-26T05:56:31.971Z,66.40
2018-11-26T05:59:01.011Z,66.60
2018-11-26T06:01:29.452Z,66.50
2018-11-26T06:03:57.776Z,66.40
2018-11-26T06:06:26.090Z,66.50
2018-11-26T06:08:55.825Z,66.50
2018-11-26T06:11:24.255Z,66.70
2018-11-26T06:13:52.704Z,66.60
2018-11-26T06:16:21.031Z,66.60
2018-11-26T06:18:49.435Z,66.50
2018-11-26T06:21:17.913Z,67.20
2018-11-26T06:23:47.442Z,66.50
2018-11-26T06:26:15.776Z,66.50
2018-11-26T06:28:45.689Z,66.60
2018-11-26T06:31:14.045Z,66.50
2018-11-26T06:33:42.451Z,66.60
2018-11-26T06:36:10.850Z,66.60
2018-11-26T06:38:39.338Z,67.10
2018-11-26T06:41:07.722Z,67.20
2018-11-26T06:43:36.100Z,66.60
2018-11-26T06:46:04.509Z,66.50
2018-11-26T06:48:32.859Z,66.60
2018-11-26T06:51:01.199Z,65.80
2018-11-26T06:53:29.622Z,66.50
2018-11-26T06:55:57.957Z,66.30
2018-11-26T06:58:26.392Z,66.20
2018-11-26T07:00:54.905Z,66.20
2018-11-26T07:03:24.745Z,66.30
2018-11-26T07:05:53.107Z,66.50
2018-11-26T07:08:22.173Z,66.30
2018-11-26T07:10:50.608Z,66.40
2018-11-26T07:13:19.127Z,66.50
2018-11-26T07:15:48.523Z,66.50
2018-11-26T07:18:16.853Z,66.50
2018-11-26T07:20:45.240Z,66.40
2018-11-26T07:23:13.636Z,66.50
2018-11-26T07:25:42.042Z,67.10
2018-11-26T07:28:10.391Z,66.40
2018-11-26T07:30:38.784Z,66.40
2018-11-26T07:33:07.121Z,66.20
2018-11-26T07:35:37.574Z,66.00
2018-11-26T07:38:06.648Z,65.60
2018-11-26T07:40:36.468Z,65.50
2018-11-26T07:43:07.543Z,65.80
2018-11-26T07:45:36.150Z,65.80
2018-11-26T07:48:05.869Z,65.80
2018-11-26T07:50:34.912Z,65.80
2018-11-26T07:53:03.286Z,65.70
2018-11-26T07:55:31.660Z,65.60
2018-11-26T07:58:01.584Z,65.60
2018-11-26T08:00:29.931Z,65.70
2018-11-26T08:02:58.362Z,65.80
2018-11-26T08:05:26.731Z,65.90
2018-11-26T08:07:55.084Z,65.90
2018-11-26T08:10:24.635Z,65.90
2018-11-26T08:12:54.009Z,65.40
2018-11-26T08:15:29.016Z,65.70
2018-11-26T08:17:57.430Z,65.70
2018-11-26T08:20:26.984Z,65.70
2018-11-26T08:22:55.403Z,65.50
2018-11-26T08:25:24.403Z,65.50
2018-11-26T08:27:53.075Z,65.40
2018-11-26T08:30:23.532Z,65.40
2018-11-26T08:32:53.499Z,65.60
2018-11-26T08:35:21.910Z,65.60
2018-11-26T08:38:01.739Z,65.50
2018-11-26T08:40:31.417Z,65.10
2018-11-26T08:43:15.467Z,65.10
2018-11-26T08:45:52.440Z,65.30
2018-11-26T08:48:26.052Z,65.00
2018-11-26T08:50:55.529Z,65.10
2018-11-26T08:53:24.077Z,65.30
2018-11-26T08:55:53.684Z,65.00
2018-11-26T08:58:22.170Z,64.80
2018-11-26T09:00:56.083Z,64.90
2018-11-26T09:03:28.717Z,64.50
2018-11-26T09:06:01.973Z,64.60
2018-11-26T09:08:33.754Z,64.60
2018-11-26T09:11:03.008Z,64.40
2018-11-26T09:13:31.699Z,64.30
2018-11-26T09:16:00.141Z,64.30
2018-11-26T09:18:28.571Z,65.20
2018-11-26T09:20:57.484Z,64.70
2018-11-26T09:23:25.856Z,63.90
2018-11-26T09:25:54.278Z,63.70
2018-11-26T09:28:24.351Z,64.00
2018-11-26T09:30:52.711Z,64.10
2018-11-26T09:33:21.134Z,64.00
2018-11-26T09:35:49.583Z,64.20
2018-11-26T09:38:17.960Z,63.70
2018-11-26T09:40:46.330Z,63.50
2018-11-26T09:43:14.741Z,63.50
2018-11-26T09:45:43.056Z,63.50
2018-11-26T09:48:12.483Z,63.60
2018-11-26T09:50:40.912Z,63.40
2018-11-26T09:53:09.260Z,63.40
2018-11-26T09:55:37.596Z,63.40
2018-11-26T09:58:06.080Z,62.90
2018-11-26T10:00:35.345Z,63.60
2018-11-26T10:03:03.701Z,63.70
2018-11-26T10:05:33.594Z,63.80
2018-11-26T10:08:02.037Z,64.10
2018-11-26T10:10:30.469Z,63.90
2018-11-26T10:12:58.836Z,64.10
2018-11-26T10:15:27.751Z,64.20
2018-11-26T10:17:56.111Z,64.20
2018-11-26T10:20:25.998Z,64.30
2018-11-26T10:22:54.699Z,64.40
2018-11-26T10:25:23.574Z,64.50
2018-11-26T10:27:52.045Z,64.60
2018-11-26T10:30:23.385Z,64.30
2018-11-26T10:32:51.500Z,64.60
2018-11-26T10:35:20.408Z,64.20
2018-11-26T10:37:48.770Z,64.40
2018-11-26T10:40:20.223Z,64.30
2018-11-26T10:42:48.637Z,64.50
2018-11-26T10:45:20.011Z,64.50
2018-11-26T10:47:48.527Z,64.50
2018-11-26T10:50:18.449Z,64.20
2018-11-26T10:52:54.903Z,64.40
2018-11-26T10:55:24.915Z,64.60
2018-11-26T10:57:53.311Z,63.80
2018-11-26T11:00:27.150Z,63.80
2018-11-26T11:02:55.864Z,63.70
2018-11-26T11:05:23.918Z,63.60
2018-11-26T11:07:52.260Z,63.70
2018-11-26T11:10:23.881Z,63.30
2018-11-26T11:12:52.352Z,63.30
2018-11-26T11:15:20.784Z,63.00
2018-11-26T11:17:49.136Z,63.00
2018-11-26T11:20:20.664Z,62.80
2018-11-26T11:22:48.980Z,62.70
2018-11-26T11:25:18.079Z,62.70
2018-11-26T11:27:46.540Z,62.80
2018-11-26T11:30:16.975Z,62.40
2018-11-26T11:32:45.386Z,62.30
2018-11-26T11:35:14.477Z,62.40
2018-11-26T11:37:43.571Z,62.40
2018-11-26T11:40:14.449Z,61.90
2018-11-26T11:42:42.809Z,61.60
2018-11-26T11:45:12.246Z,61.80
2018-11-26T11:47:40.828Z,62.10
2018-11-26T11:50:13.139Z,62.00
2018-11-26T11:52:41.574Z,62.50
2018-11-26T11:55:11.933Z,61.90
2018-11-26T11:57:46.876Z,61.80
2018-11-26T12:00:26.866Z,61.90
2018-11-26T12:02:55.230Z,62.30
2018-11-26T12:05:23.631Z,61.70
2018-11-26T12:07:52.049Z,61.90
2018-11-26T12:10:20.467Z,62.00
2018-11-26T12:12:48.805Z,62.00
2018-11-26T12:15:17.620Z,62.10
2018-11-26T12:17:47.258Z,62.00
2018-11-26T12:20:15.739Z,62.10
2018-11-26T12:22:44.589Z,61.80
2018-11-26T12:25:16.062Z,61.20
2018-11-26T12:27:46.043Z,61.30
2018-11-26T12:30:24.252Z,61.80
2018-11-26T12:32:52.711Z,61.60
2018-11-26T12:35:21.693Z,61.80
2018-11-26T12:37:50.074Z,61.80
2018-11-26T12:40:20.693Z,61.70
2018-11-26T12:42:49.987Z,61.30
2018-11-26T12:45:28.249Z,61.60
2018-11-26T12:47:56.680Z,62.40
2018-11-26T12:50:25.150Z,61.40
2018-11-26T12:52:53.545Z,61.40
2018-11-26T12:55:22.848Z,61.50
2018-11-26T12:57:51.922Z,61.30
2018-11-26T13:00:23.479Z,61.40
2018-11-26T13:03:00.063Z,61.80
2018-11-26T13:05:28.415Z,61.10
2018-11-26T13:07:56.798Z,61.20
2018-11-26T13:10:25.124Z,61.20
2018-11-26T13:12:54.027Z,60.60
2018-11-26T13:15:23.518Z,60.20
2018-11-26T13:17:53.674Z,59.80
2018-11-26T13:20:23.827Z,59.50
2018-11-26T13:22:52.714Z,59.80
2018-11-26T13:25:28.867Z,59.90
2018-11-26T13:28:01.455Z,59.60
2018-11-26T13:30:32.180Z,59.10
2018-11-26T13:33:04.742Z,59.60
2018-11-26T13:35:33.218Z,59.30
2018-11-26T13:38:01.679Z,59.50
2018-11-26T13:40:30.210Z,59.80
2018-11-26T13:42:58.652Z,59.80
2018-11-26T13:45:31.084Z,59.60
2018-11-26T13:47:59.471Z,59.90
2018-11-26T13:50:31.540Z,60.00
2018-11-26T13:52:59.911Z,60.20
2018-11-26T13:55:28.230Z,60.30
2018-11-26T13:57:56.520Z,60.00
2018-11-26T14:00:25.032Z,59.80
2018-11-26T14:02:53.408Z,59.80
2018-11-26T14:05:22.887Z,60.00
2018-11-26T14:07:51.328Z,60.10
2018-11-26T14:10:22.646Z,60.30
2018-11-26T14:13:15.127Z,60.70
2018-11-26T14:15:43.595Z,60.60
2018-11-26T14:18:11.946Z,60.40
2018-11-26T14:20:40.542Z,60.60
2018-11-26T14:23:09.102Z,60.80
2018-11-26T14:25:37.487Z,61.00
2018-11-26T14:28:06.270Z,60.80
2018-11-26T14:30:34.567Z,60.90
2018-11-26T14:33:02.960Z,61.10
2018-11-26T14:35:31.271Z,60.90
2018-11-26T14:38:02.492Z,61.10
2018-11-26T14:40:34.484Z,60.90
2018-11-26T14:43:02.975Z,61.30
2018-11-26T14:45:32.343Z,61.40
2018-11-26T14:48:02.142Z,61.40
2018-11-26T14:50:34.480Z,61.30
2018-11-26T14:53:06.049Z,61.40
2018-11-26T14:55:37.264Z,61.50
2018-11-26T14:58:12.539Z,61.70
2018-11-26T15:00:41.906Z,61.50
2018-11-26T15:03:12.757Z,61.60
2018-11-26T15:05:41.271Z,61.30
2018-11-26T15:08:14.269Z,61.30
2018-11-26T15:10:42.620Z,61.70
2018-11-26T15:13:15.180Z,62.50
2018-11-26T15:15:44.799Z,61.70
2018-11-26T15:18:20.147Z,62.10
2018-11-26T15:20:55.112Z,61.90
2018-11-26T15:23:27.436Z,62.00
2018-11-26T15:26:04.710Z,62.10
2018-11-26T15:28:33.093Z,61.90
2018-11-26T15:31:02.469Z,61.80
2018-11-26T15:33:34.726Z,61.90
2018-11-26T15:36:03.285Z,62.00
2018-11-26T15:38:33.687Z,62.20
2018-11-26T15:41:06.318Z,62.00
2018-11-26T15:43:34.785Z,62.20
2018-11-26T15:46:03.294Z,62.40
2018-11-26T15:48:31.771Z,62.20
2018-11-26T15:51:00.462Z,62.30
2018-11-26T15:53:28.939Z,62.40
2018-11-26T15:55:57.349Z,62.40
2018-11-26T15:58:25.727Z,62.30
2018-11-26T16:00:54.105Z,62.30
2018-11-26T16:03:22.534Z,62.30
2018-11-26T16:05:51.046Z,62.40
2018-11-26T16:08:19.538Z,62.40
2018-11-26T16:10:49.016Z,62.30
2018-11-26T16:13:19.403Z,62.40
2018-11-26T16:15:57.206Z,63.30
2018-11-26T16:18:25.736Z,62.40
2018-11-26T16:21:01.036Z,63.10
2018-11-26T16:23:31.383Z,62.40
2018-11-26T16:26:01.081Z,62.30
2018-11-26T16:28:32.060Z,63.20
2018-11-26T16:31:00.513Z,62.50
2018-11-26T16:33:30.899Z,62.60
2018-11-26T16:35:59.261Z,62.60
2018-11-26T16:38:29.647Z,62.50
2018-11-26T16:41:02.093Z,62.30
2018-11-26T16:43:31.501Z,62.50
2018-11-26T16:46:06.608Z,62.60
2018-11-26T16:48:36.115Z,62.90
2018-11-26T16:51:05.333Z,62.80
2018-11-26T16:53:37.549Z,62.60
2018-11-26T16:56:06.102Z,62.70
2018-11-26T16:58:34.487Z,62.60
2018-11-26T17:01:03.243Z,62.80
2018-11-26T17:03:31.651Z,62.90
2018-11-26T17:06:01.060Z,62.70
2018-11-26T17:08:29.666Z,62.80
2018-11-26T17:10:58.135Z,62.90
2018-11-26T17:13:26.545Z,62.90
2018-11-26T17:15:55.002Z,62.90
2018-11-26T17:18:23.559Z,62.80
2018-11-26T17:20:51.956Z,63.00
2018-11-26T17:23:20.429Z,63.00
2018-11-26T17:25:48.974Z,63.40
2018-11-26T17:28:17.404Z,62.90
2018-11-26T17:30:45.876Z,63.20
2018-11-26T17:33:14.313Z,63.40
2018-11-26T17:35:43.398Z,63.30
2018-11-26T17:38:11.830Z,63.30
2018-11-26T17:40:40.638Z,63.30
2018-11-26T17:43:12.188Z,63.50
2018-11-26T17:45:40.875Z,63.50
2018-11-26T17:48:09.265Z,63.70
2018-11-26T17:50:40.166Z,63.70
2018-11-26T17:53:12.932Z,63.50
2018-11-26T17:55:46.346Z,63.40
2018-11-26T17:58:14.883Z,63.40
2018-11-26T18:00:44.222Z,63.20
2018-11-26T18:03:12.805Z,63.30
2018-11-26T18:05:42.204Z,63.30
2018-11-26T18:08:15.366Z,63.40
2018-11-26T18:10:43.767Z,63.40
2018-11-26T18:13:12.152Z,63.40
2018-11-26T18:15:40.860Z,63.30
2018-11-26T18:18:11.744Z,63.20
2018-11-26T18:20:40.439Z,63.20
2018-11-26T18:23:09.709Z,63.10
2018-11-26T18:25:38.206Z,63.00
2018-11-26T18:28:09.655Z,64.70
2018-11-26T18:30:39.734Z,63.60
2018-11-26T18:33:08.125Z,63.00
2018-11-26T18:35:36.983Z,62.40
2018-11-26T18:38:06.189Z,62.30
2018-11-26T18:40:35.391Z,62.50
2018-11-26T18:43:03.745Z,62.80
2018-11-26T18:45:32.112Z,62.70
2018-11-26T18:48:00.500Z,62.70
2018-11-26T18:50:28.893Z,62.60
2018-11-26T18:52:57.221Z,62.50
2018-11-26T18:55:25.708Z,62.80
2018-11-26T18:57:54.148Z,62.50
2018-11-26T19:00:27.934Z,62.70
2018-11-26T19:02:56.973Z,62.60
2018-11-26T19:05:25.364Z,62.50
2018-11-26T19:07:53.970Z,62.50
2018-11-26T19:10:30.555Z,62.60
2018-11-26T19:13:12.686Z,62.80
2018-11-26T19:15:42.873Z,62.90
2018-11-26T19:18:16.210Z,62.70
2018-11-26T19:20:44.518Z,62.90
2018-11-26T19:23:13.049Z,62.90
2018-11-26T19:25:41.534Z,62.90
2018-11-26T19:28:10.001Z,62.80
2018-11-26T19:30:38.561Z,62.70
2018-11-26T19:33:08.199Z,62.70
2018-11-26T19:35:36.601Z,62.80
2018-11-26T19:38:05.712Z,62.70
2018-11-26T19:40:34.211Z,62.70
2018-11-26T19:43:02.652Z,62.70
2018-11-26T19:45:31.091Z,62.70
2018-11-26T19:47:59.513Z,62.70
2018-11-26T19:50:27.871Z,62.70
2018-11-26T19:52:56.415Z,62.70
2018-11-26T19:55:26.576Z,62.70
2018-11-26T19:57:56.582Z,62.70
2018-11-26T20:00:29.991Z,62.70
2018-11-26T20:03:18.750Z,62.80
2018-11-26T20:05:54.743Z,62.60
2018-11-26T20:08:23.072Z,62.60
2018-11-26T20:10:51.447Z,62.80
2018-11-26T20:13:19.803Z,62.90
2018-11-26T20:15:48.192Z,62.90
2018-11-26T20:18:16.573Z,62.90
2018-11-26T20:20:44.936Z,62.70
2018-11-26T20:23:13.347Z,62.80
2018-11-26T20:25:41.785Z,62.60
2018-11-26T20:28:10.115Z,62.70
2018-11-26T20:30:38.710Z,62.80
2018-11-26T20:33:07.699Z,62.60
2018-11-26T20:35:36.093Z,62.70
2018-11-26T20:38:04.472Z,62.60
2018-11-26T20:40:32.819Z,62.70
2018-11-26T20:43:01.225Z,62.80
2018-11-26T20:45:29.562Z,62.90
2018-11-26T20:47:57.949Z,62.90
2018-11-26T20:50:27.696Z,62.90
2018-11-26T20:52:56.133Z,62.90
2018-11-26T20:55:25.503Z,62.90
2018-11-26T20:57:55.267Z,62.90
2018-11-26T21:00:25.003Z,63.60
2018-11-26T21:03:00.990Z,62.90
2018-11-26T21:05:29.440Z,62.80
2018-11-26T21:07:57.853Z,62.80
2018-11-26T21:10:26.350Z,62.70
2018-11-26T21:12:54.852Z,62.90
2018-11-26T21:15:23.384Z,62.70
2018-11-26T21:17:52.681Z,62.90
2018-11-26T21:20:23.511Z,62.70
2018-11-26T21:22:51.923Z,62.70
2018-11-26T21:25:20.423Z,62.60
2018-11-26T21:27:48.954Z,62.70
2018-11-26T21:30:18.351Z,62.70
2018-11-26T21:32:46.723Z,62.70
2018-11-26T21:35:18.521Z,62.90
2018-11-26T21:37:48.289Z,62.90
2018-11-26T21:40:20.289Z,62.90
2018-11-26T21:42:46.436Z,62.70
2018-11-26T21:45:16.752Z,62.80
2018-11-26T21:47:45.182Z,62.80
2018-11-26T21:50:14.362Z,62.90
2018-11-26T21:52:42.937Z,62.80
2018-11-26T21:55:13.463Z,62.80
2018-11-26T21:57:41.918Z,62.60
2018-11-26T22:00:19.954Z,62.60
2018-11-26T22:02:48.539Z,62.50
2018-11-26T22:05:16.946Z,62.50
2018-11-26T22:07:45.335Z,62.30
2018-11-26T22:10:21.641Z,62.50
2018-11-26T22:12:52.220Z,62.40
2018-11-26T22:15:20.729Z,62.50
2018-11-26T22:17:49.083Z,62.50
2018-11-26T22:20:20.716Z,62.50
2018-11-26T22:22:49.226Z,62.50
2018-11-26T22:25:18.821Z,62.40
2018-11-26T22:27:46.095Z,62.40
2018-11-26T22:30:22.401Z,62.30
2018-11-26T22:32:50.819Z,62.30
2018-11-26T22:35:19.227Z,62.10
2018-11-26T22:37:47.584Z,62.40
2018-11-26T22:40:18.840Z,62.80
2018-11-26T22:42:47.202Z,62.20
2018-11-26T22:45:26.117Z,62.40
2018-11-26T22:48:01.857Z,62.70
2018-11-26T22:50:30.247Z,62.80
2018-11-26T22:52:58.643Z,62.90
2018-11-26T22:55:27.010Z,63.00
2018-11-26T22:57:55.350Z,63.10
2018-11-26T23:00:29.085Z,63.80
2018-11-26T23:02:59.659Z,62.90
2018-11-26T23:05:28.056Z,62.90
2018-11-26T23:07:56.573Z,63.00
2018-11-26T23:10:24.953Z,63.10
2018-11-26T23:12:53.302Z,63.10
2018-11-26T23:15:21.703Z,63.20
2018-11-26T23:17:50.115Z,63.10
2018-11-26T23:20:19.391Z,63.10
2018-11-26T23:22:47.815Z,63.10
2018-11-26T23:25:17.384Z,62.90
2018-11-26T23:27:45.777Z,62.90
2018-11-26T23:30:22.026Z,63.10
2018-11-26T23:32:51.958Z,63.10
2018-11-26T23:35:20.300Z,63.00
2018-11-26T23:37:48.695Z,62.90
2018-11-26T23:40:17.077Z,62.80
2018-11-26T23:42:45.449Z,62.80
2018-11-26T23:45:21.808Z,62.80
2018-11-26T23:47:50.540Z,62.60
2018-11-26T23:50:18.855Z,62.40
2018-11-26T23:52:47.443Z,62.20
2018-11-26T23:55:17.704Z,62.00
2018-11-26T23:57:46.143Z,61.80
